^^
Meteo Knjazevac Station Historical Data
Daily Summary for February 25, 2021 Units:  Both    English   Metric
Daily Weekly Monthly Yearly Custom
  High: Low: Average:
Temperature: 52.5 °F /  11.4 °C 36.5 °F /  2.5 °C 47 °F /  8.3 °C
Dew Point: 45.7 °F /  7.6 °C 32.4 °F /  0.2 °C 42.1 °F /  5.6 °C
Humidity: 88% 68% 83%
Wind Speed: 16mph /  25.7km/h - 7.4mph /  11.9km/h
Wind Gust: 29mph /  46.7km/h - -
Wind- - SW
Pressure: 29.65 in /  1003.9 hPa 29.45 in /  997.2 hPa -
Precipitation: 0.11 in /  2.79 mm    
Historical Graphs
 
 
Tabular Data for February 25, 2021
Time Temperature Dew Point Pressure Wind Wind Speed Wind Gust Humidity Rainfall Rate (Hourly) solar Conditions
00:00 52.5 °F /  11.4 °C 42.3 °F /  5.7 °C 29.48in /  998.2hPa South 7mph /  11.3km/h 14mph /  22.5km/h 68% 0.00in /  0mm 0 W/m2
00:10 52.5 °F /  11.4 °C 43 °F /  6.1 °C 29.48in /  998.2hPa South 8mph /  12.9km/h 18mph /  29km/h 70% 0.00in /  0mm 0 W/m2
00:20 51.8 °F /  11 °C 43.8 °F /  6.6 °C 29.49in /  998.5hPa South 7mph /  11.3km/h 20mph /  32.2km/h 74% 0.01in /  0.25mm 0 W/m2
00:30 51.1 °F /  10.6 °C 44.5 °F /  6.9 °C 29.49in /  998.5hPa SSW 7mph /  11.3km/h 20mph /  32.2km/h 78% 0.01in /  0.25mm 0 W/m2
00:40 50.4 °F /  10.2 °C 44.4 °F /  6.9 °C 29.49in /  998.5hPa South 7mph /  11.3km/h 14mph /  22.5km/h 80% 0.00in /  0mm 0 W/m2
00:50 50.2 °F /  10.1 °C 44.6 °F /  7 °C 29.48in /  998.2hPa South 6mph /  9.7km/h 15mph /  24.1km/h 81% 0.00in /  0mm 0 W/m2
01:00 49.8 °F /  9.9 °C 44.9 °F /  7.2 °C 29.48in /  998.2hPa SSE 6mph /  9.7km/h 14mph /  22.5km/h 83% 0.00in /  0mm 0 W/m2
01:10 49.5 °F /  9.7 °C 44.5 °F /  6.9 °C 29.47in /  997.9hPa South 3mph /  4.8km/h 13mph /  20.9km/h 83% 0.00in /  0mm 0 W/m2
01:20 49.1 °F /  9.5 °C 44.5 °F /  6.9 °C 29.47in /  997.9hPa SSW 6mph /  9.7km/h 10mph /  16.1km/h 84% 0.00in /  0mm 0 W/m2
01:30 48.9 °F /  9.4 °C 44.6 °F /  7 °C 29.46in /  997.5hPa South 8mph /  12.9km/h 17mph /  27.4km/h 85% 0.00in /  0mm 0 W/m2
01:40 48.9 °F /  9.4 °C 44.3 °F /  6.8 °C 29.46in /  997.5hPa South 6mph /  9.7km/h 16mph /  25.7km/h 84% 0.00in /  0mm 0 W/m2
01:50 49.1 °F /  9.5 °C 44.2 °F /  6.8 °C 29.46in /  997.5hPa SW 3mph /  4.8km/h 12mph /  19.3km/h 83% 0.00in /  0mm 0 W/m2
02:00 49.1 °F /  9.5 °C 44.2 °F /  6.8 °C 29.47in /  997.9hPa WNW 2mph /  3.2km/h 7mph /  11.3km/h 83% 0.00in /  0mm 0 W/m2
02:10 49.5 °F /  9.7 °C 43.9 °F /  6.6 °C 29.47in /  997.9hPa SE 2mph /  3.2km/h 10mph /  16.1km/h 81% 0.00in /  0mm 0 W/m2
02:20 49.6 °F /  9.8 °C 43.7 °F /  6.5 °C 29.46in /  997.5hPa SSW 7mph /  11.3km/h 18mph /  29km/h 80% 0.00in /  0mm 0 W/m2
02:30 50.4 °F /  10.2 °C 44.1 °F /  6.7 °C 29.47in /  997.9hPa SSW 10mph /  16.1km/h 20mph /  32.2km/h 79% 0.00in /  0mm 0 W/m2
02:40 50.7 °F /  10.4 °C 44.4 °F /  6.9 °C 29.46in /  997.5hPa SW 10mph /  16.1km/h 24mph /  38.6km/h 79% 0.01in /  0.25mm 0 W/m2
02:50 50.7 °F /  10.4 °C 44.8 °F /  7.1 °C 29.46in /  997.5hPa SW 9mph /  14.5km/h 15mph /  24.1km/h 80% 0.01in /  0.25mm 0 W/m2
03:00 50.4 °F /  10.2 °C 45.4 °F /  7.4 °C 29.46in /  997.5hPa SW 8mph /  12.9km/h 19mph /  30.6km/h 83% 0.01in /  0.25mm 0 W/m2
03:10 50 °F /  10 °C 45.4 °F /  7.4 °C 29.46in /  997.5hPa SW 9mph /  14.5km/h 15mph /  24.1km/h 84% 0.00in /  0mm 0 W/m2
03:20 49.8 °F /  9.9 °C 45.2 °F /  7.3 °C 29.45in /  997.2hPa SW 7mph /  11.3km/h 15mph /  24.1km/h 84% 0.00in /  0mm 0 W/m2
03:30 49.5 °F /  9.7 °C 45.4 °F /  7.4 °C 29.46in /  997.5hPa SSW 5mph /  8km/h 14mph /  22.5km/h 86% 0.00in /  0mm 0 W/m2
03:40 49.6 °F /  9.8 °C 45.3 °F /  7.4 °C 29.46in /  997.5hPa SSW 6mph /  9.7km/h 17mph /  27.4km/h 85% 0.01in /  0.25mm 0 W/m2
03:50 49.3 °F /  9.6 °C 45.3 °F /  7.4 °C 29.47in /  997.9hPa SSW 3mph /  4.8km/h 12mph /  19.3km/h 86% 0.01in /  0.25mm 0 W/m2
04:00 49.1 °F /  9.5 °C 45.7 °F /  7.6 °C 29.48in /  998.2hPa SSW 1mph /  1.6km/h 6mph /  9.7km/h 88% 0.00in /  0mm 0 W/m2
04:10 49.1 °F /  9.5 °C 45.7 °F /  7.6 °C 29.48in /  998.2hPa West 2mph /  3.2km/h 5mph /  8km/h 88% 0.00in /  0mm 0 W/m2
04:20 49.1 °F /  9.5 °C 45.7 °F /  7.6 °C 29.49in /  998.5hPa WSW 5mph /  8km/h 8mph /  12.9km/h 88% 0.00in /  0mm 0 W/m2
04:30 49.1 °F /  9.5 °C 45.1 °F /  7.3 °C 29.49in /  998.5hPa SW 9mph /  14.5km/h 15mph /  24.1km/h 86% 0.01in /  0.25mm 0 W/m2
04:40 49.1 °F /  9.5 °C 45.7 °F /  7.6 °C 29.49in /  998.5hPa SW 8mph /  12.9km/h 14mph /  22.5km/h 88% 0.00in /  0mm 0 W/m2
04:50 49.3 °F /  9.6 °C 45 °F /  7.2 °C 29.49in /  998.5hPa SW 12mph /  19.3km/h 25mph /  40.2km/h 85% 0.02in /  0.51mm 0 W/m2
05:00 49.1 °F /  9.5 °C 45.1 °F /  7.3 °C 29.50in /  998.9hPa SW 14mph /  22.5km/h 25mph /  40.2km/h 86% 0.03in /  0.76mm 0 W/m2
05:10 48.9 °F /  9.4 °C 44.9 °F /  7.2 °C 29.51in /  999.2hPa SW 12mph /  19.3km/h 23mph /  37km/h 86% 0.02in /  0.51mm 0 W/m2
05:20 48.1 °F /  8.9 °C 44.1 °F /  6.7 °C 29.54in /  1000.2hPa WSW 16mph /  25.7km/h 24mph /  38.6km/h 86% 0.02in /  0.51mm 0 W/m2
05:30 43.4 °F /  6.3 °C 38.6 °F /  3.7 °C 29.55in /  1000.6hPa West 10mph /  16.1km/h 27mph /  43.5km/h 83% 0.02in /  0.51mm 0 W/m2
05:40 41 °F /  5 °C 36.6 °F /  2.6 °C 29.57in /  1001.2hPa West 13mph /  20.9km/h 29mph /  46.7km/h 84% 0.00in /  0mm 0 W/m2
05:50 39.8 °F /  4.3 °C 35.3 °F /  1.8 °C 29.58in /  1001.6hPa West 10mph /  16.1km/h 22mph /  35.4km/h 84% 0.00in /  0mm 0 W/m2
06:00 39 °F /  3.9 °C 34.9 °F /  1.6 °C 29.60in /  1002.3hPa WSW 9mph /  14.5km/h 18mph /  29km/h 85% 0.00in /  0mm 0 W/m2
06:10 38.3 °F /  3.5 °C 34.2 °F /  1.2 °C 29.61in /  1002.6hPa WSW 7mph /  11.3km/h 17mph /  27.4km/h 85% 0.00in /  0mm 0 W/m2
06:20 37.8 °F /  3.2 °C 33.7 °F /  0.9 °C 29.61in /  1002.6hPa WSW 9mph /  14.5km/h 17mph /  27.4km/h 85% 0.00in /  0mm 0 W/m2
06:30 37.4 °F /  3 °C 33.3 °F /  0.7 °C 29.62in /  1002.9hPa WSW 10mph /  16.1km/h 22mph /  35.4km/h 85% 0.00in /  0mm 0 W/m2
06:40 37 °F /  2.8 °C 32.9 °F /  0.5 °C 29.62in /  1002.9hPa WSW 13mph /  20.9km/h 22mph /  35.4km/h 85% 0.00in /  0mm 0 W/m2
06:50 36.7 °F /  2.6 °C 32.9 °F /  0.5 °C 29.64in /  1003.6hPa WSW 7mph /  11.3km/h 19mph /  30.6km/h 86% 0.00in /  0mm 0 W/m2
07:00 36.5 °F /  2.5 °C 32.4 °F /  0.2 °C 29.64in /  1003.6hPa SW 3mph /  4.8km/h 12mph /  19.3km/h 85% 0.00in /  0mm 1 W/m2
07:10 36.5 °F /  2.5 °C 32.4 °F /  0.2 °C 29.65in /  1003.9hPa WSW 5mph /  8km/h 7mph /  11.3km/h 85% 0.00in /  0mm 2 W/m2
Knjazevac, Serbia
Compliments of Weather Underground - 2 mb